WetterOnline ( https://www.wetteronline.de )

Wetter aktuell Kisdorf

Aktuelles Wetter: Quickborn (17m)

6-stündlich | Neueste Meldungen
Ortszeit Temperatur Wetter
Di, 07.04. 8:00 8.7° C bedeckt
Di, 07.04. 2:00 9.5° C bewölkt
Mo, 06.04. 20:00 17.8° C wolkenlos
Mo, 06.04. 14:00 20.1° C wolkenlos
Mo, 06.04. 8:00 7.4° C wolkenlos
Mo, 06.04. 2:00 9.7° C wolkenlos
So, 05.04. 20:00 14.7° C wolkenlos
So, 05.04. 14:00 15.9° C wolkenlos
Ortszeit Temperatur Wetter
Di, 07.04. 13:30 15.5° C fast wolkenlos
Di, 07.04. 13:20 15.5° C fast wolkenlos
Di, 07.04. 13:10 15.4° C fast wolkenlos
Di, 07.04. 13:00 15.1° C fast wolkenlos
Di, 07.04. 12:50 15.1° C fast wolkenlos
Di, 07.04. 12:40 14.9° C wolkenlos
Di, 07.04. 12:30 14.3° C wolkenlos
Di, 07.04. 12:00 13.2° C wolkenlos
Di, 07.04. 11:30 12.7° C leicht bewölkt
Di, 07.04. 11:00 11.9° C leicht bewölkt
Di, 07.04. 10:30 11.1° C fast wolkenlos
Ortszeit Relative Feuchte Sichtweite
Di, 07.04. 8:00 93% 12 km
Di, 07.04. 2:00 80% 9 km
Mo, 06.04. 20:00 39% 50 km
Mo, 06.04. 14:00 31% 40 km
Mo, 06.04. 8:00 56% 35 km
Mo, 06.04. 2:00 48% 40 km
So, 05.04. 20:00 40% 30 km
So, 05.04. 14:00 39% 29 km
Ortszeit Relative Feuchte Sichtweite
Di, 07.04. 13:30 42% 55 km
Di, 07.04. 13:20 42% -
Di, 07.04. 13:10 47% -
Di, 07.04. 13:00 51% 50 km
Di, 07.04. 12:50 51% -
Di, 07.04. 12:40 51% -
Di, 07.04. 12:30 57% 25 km
Di, 07.04. 12:00 60% 19 km
Di, 07.04. 11:30 71% 18 km
Di, 07.04. 11:00 73% 22 km
Di, 07.04. 10:30 81% 14 km
Ortszeit Niederschlagsmenge Niederschlagsart
Di, 07.04. 8:00 0.0 l/m2 in 3 Std. -
Di, 07.04. 2:00 0.0 l/m2 in 3 Std. -
Mo, 06.04. 20:00 0.0 l/m2 in 12 Std. -
Mo, 06.04. 14:00 0.0 l/m2 in 6 Std. -
Mo, 06.04. 8:00 0.0 l/m2 in 3 Std. -
Mo, 06.04. 2:00 0.0 l/m2 in 6 Std. -
So, 05.04. 20:00 0.0 l/m2 in 12 Std. -
So, 05.04. 14:00 0.0 l/m2 in 6 Std. -
Ortszeit Niederschlagsmenge Niederschlagsart
Di, 07.04. 13:30 0.0 l/m2 in 1 Std. -
Di, 07.04. 13:20 keine Meldung -
Di, 07.04. 13:10 keine Meldung -
Di, 07.04. 13:00 0.0 l/m2 in 1 Std. -
Di, 07.04. 12:50 keine Meldung -
Di, 07.04. 12:40 keine Meldung -
Di, 07.04. 12:30 0.0 l/m2 in 1 Std. -
Di, 07.04. 12:00 0.0 l/m2 in 1 Std. -
Di, 07.04. 11:30 0.0 l/m2 in 1 Std. -
Di, 07.04. 11:00 0.0 l/m2 in 1 Std. -
Di, 07.04. 10:30 0.0 l/m2 in 1 Std. -
Ortszeit Stärke Spitze Richtung
km/h Bft. km/h Grad Sektor
Di, 07.04. 8:00 9 2 24 290° W
Di, 07.04. 2:00 11 2 29 270° W
Mo, 06.04. 20:00 4 1 29 180° S
Mo, 06.04. 14:00 14 3 29 160° S
Mo, 06.04. 8:00 13 3 31 140° SO
Mo, 06.04. 2:00 17 3 31 130° SO
So, 05.04. 20:00 20 4 44 120° SO
So, 05.04. 14:00 25 4 47 160° S
Ortszeit Stärke Spitze Richtung
km/h Bft. km/h Grad Sektor
Di, 07.04. 13:30 13 3 24 300° NW
Di, 07.04. 13:20 13 3 - 300° NW
Di, 07.04. 13:10 14 3 - 310° NW
Di, 07.04. 13:00 13 3 24 310° NW
Di, 07.04. 12:50 13 3 - 310° NW
Di, 07.04. 12:40 13 3 - 320° NW
Di, 07.04. 12:30 7 2 18 290° W
Di, 07.04. 12:00 7 2 14 280° W
Di, 07.04. 11:30 7 2 14 270° W
Di, 07.04. 11:00 11 2 18 300° NW
Di, 07.04. 10:30 9 2 17 270° W
Ortszeit Untergrenze Bedeckung Gattung
total tief tief mittel hoch
Di, 07.04. 8:00 150 m 8/8 8/8 - - -
Di, 07.04. 2:00 60 m 7/8 7/8 - - -
Mo, 06.04. 20:00 - 0/8 0/8 - - -
Mo, 06.04. 14:00 - 0/8 0/8 - - -
Mo, 06.04. 8:00 - 0/8 0/8 - - -
Mo, 06.04. 2:00 - 0/8 0/8 - - -
So, 05.04. 20:00 - 0/8 0/8 - - -
So, 05.04. 14:00 - 0/8 0/8 - - -
Ortszeit Bedeckungsgrad in Achtel und Wolkenuntergrenze
Di, 07.04. 13:30 1(10500m)
Di, 07.04. 13:20 1(10500m) 2(10500m)
Di, 07.04. 13:10 1(10500m)
Di, 07.04. 13:00 1(10500m)
Di, 07.04. 12:50 1(10500m)
Di, 07.04. 12:40 keine Wolken
Di, 07.04. 12:30 keine Wolken
Di, 07.04. 12:00 keine Wolken
Di, 07.04. 11:30 3(10500m)
Di, 07.04. 11:00 5(10500m)
Di, 07.04. 10:30 1(270m)
Ortszeit Luftdruck NN (hPa) Tendenz (hPa in 3 Std.)
Di, 07.04. 8:00 1030 + 2,8
Di, 07.04. 2:00 1025 + 3,4
Mo, 06.04. 20:00 1020 + 0,5
Mo, 06.04. 14:00 1020 - 0,7
Mo, 06.04. 8:00 1021 - 0,3
Mo, 06.04. 2:00 1022 - 1,1
So, 05.04. 20:00 1023 - 1,2
So, 05.04. 14:00 1027 - 1,8
Ortszeit Luftdruck NN (hPa) Tendenz (hPa in 3 Std.)
Di, 07.04. 13:30 1033 + 0,7
Di, 07.04. 13:20 1033 keine Meldung
Di, 07.04. 13:10 1033 keine Meldung
Di, 07.04. 13:00 1033 + 1,1
Di, 07.04. 12:50 1033 keine Meldung
Di, 07.04. 12:40 1033 keine Meldung
Di, 07.04. 12:30 1033 + 1,6
Di, 07.04. 12:00 1033 + 1,7
Di, 07.04. 11:30 1033 + 2,0
Di, 07.04. 11:00 1033 + 2,4
Di, 07.04. 10:30 1032 + 2,5
Ortszeit Schneehöhe (cm)
Di, 07.04. 8:00 0
Di, 07.04. 2:00 0
Mo, 06.04. 20:00 0
Mo, 06.04. 14:00 0
Mo, 06.04. 8:00 0
Mo, 06.04. 2:00 0
So, 05.04. 20:00 0
So, 05.04. 14:00 0
Ortszeit Schneehöhe (cm)
Di, 07.04. 13:30 0
Di, 07.04. 13:20 0
Di, 07.04. 13:10 0
Di, 07.04. 13:00 0
Di, 07.04. 12:50 0
Di, 07.04. 12:40 0
Di, 07.04. 12:30 0
Di, 07.04. 12:00 0
Di, 07.04. 11:30 0
Di, 07.04. 11:00 0
Di, 07.04. 10:30 0
Link zu dieser Seite / Seite empfehlen

Das Wetter in ...